createdAt,value
2023-04-07T00:02:22.817Z,109.90
2023-04-07T00:04:52.304Z,107.53
2023-04-07T00:07:20.703Z,105.70
2023-04-07T00:09:49.265Z,105.87
2023-04-07T00:12:17.593Z,106.60
2023-04-07T00:14:47.241Z,108.50
2023-04-07T00:17:15.801Z,106.93
2023-04-07T00:19:44.473Z,109.60
2023-04-07T00:22:12.790Z,109.73
2023-04-07T00:24:41.364Z,109.20
2023-04-07T00:27:10.873Z,112.63
2023-04-07T00:29:39.192Z,111.30
2023-04-07T00:32:10.396Z,111.13
2023-04-07T00:34:38.834Z,112.77
2023-04-07T00:37:07.281Z,112.67
2023-04-07T00:39:35.719Z,112.17
2023-04-07T00:42:05.600Z,113.67
2023-04-07T00:44:34.156Z,110.60
2023-04-07T00:47:03.086Z,108.63
2023-04-07T00:49:33.205Z,107.00
2023-04-07T00:52:02.285Z,108.27
2023-04-07T00:54:32.003Z,109.97
2023-04-07T00:57:01.759Z,110.80
2023-04-07T00:59:31.523Z,110.33
2023-04-07T01:02:07.286Z,106.20
2023-04-07T01:04:44.567Z,104.53
2023-04-07T01:07:19.378Z,103.70
2023-04-07T01:09:53.004Z,102.40
2023-04-07T01:12:30.084Z,102.63
2023-04-07T01:15:02.126Z,101.73
2023-04-07T01:17:31.662Z,101.47
2023-04-07T01:20:05.500Z,100.70
2023-04-07T01:22:39.210Z,103.13
2023-04-07T01:25:39.811Z,105.17
2023-04-07T01:28:24.332Z,103.23
2023-04-07T01:30:58.168Z,103.17
2023-04-07T01:33:28.547Z,104.03
2023-04-07T01:35:59.615Z,102.40
2023-04-07T01:38:29.494Z,102.87
2023-04-07T01:40:59.972Z,102.53
2023-04-07T01:43:29.624Z,104.20
2023-04-07T01:46:00.113Z,102.20
2023-04-07T01:48:28.796Z,101.87
2023-04-07T01:50:58.074Z,100.30
2023-04-07T01:53:27.461Z,99.60
2023-04-07T01:55:56.623Z,100.57
2023-04-07T01:58:26.022Z,101.73
2023-04-07T02:00:54.518Z,102.17
2023-04-07T02:03:27.758Z,100.30
2023-04-07T02:05:58.908Z,99.00
2023-04-07T02:08:31.145Z,101.50
2023-04-07T02:11:03.915Z,100.93
2023-04-07T02:13:33.952Z,101.10
2023-04-07T02:16:03.732Z,99.53
2023-04-07T02:18:34.191Z,98.67
2023-04-07T02:21:03.596Z,99.00
2023-04-07T02:23:32.151Z,99.97
2023-04-07T02:26:00.595Z,101.40
2023-04-07T02:28:28.914Z,101.83
2023-04-07T02:30:57.357Z,99.90
2023-04-07T02:33:25.915Z,99.97
2023-04-07T02:35:55.673Z,100.10
2023-04-07T02:38:24.121Z,101.40
2023-04-07T02:40:52.558Z,101.17
2023-04-07T02:43:22.438Z,99.20
2023-04-07T02:45:50.793Z,99.80
2023-04-07T02:48:19.564Z,98.27
2023-04-07T02:50:47.759Z,97.17
2023-04-07T02:53:17.544Z,97.13
2023-04-07T02:55:47.416Z,98.50
2023-04-07T02:58:15.723Z,98.53
2023-04-07T03:00:44.045Z,99.50
2023-04-07T03:03:12.695Z,99.43
2023-04-07T03:05:41.280Z,100.33
2023-04-07T03:08:10.496Z,97.10
2023-04-07T03:10:42.139Z,96.77
2023-04-07T03:13:10.683Z,96.40
2023-04-07T03:15:39.010Z,96.17
2023-04-07T03:18:07.600Z,97.90
2023-04-07T03:20:36.008Z,95.97
2023-04-07T03:23:04.448Z,98.43
2023-04-07T03:25:32.894Z,102.37
2023-04-07T03:28:02.654Z,102.40
2023-04-07T03:30:31.121Z,104.00
2023-04-07T03:32:59.689Z,100.43
2023-04-07T03:35:27.974Z,96.57
2023-04-07T03:37:56.568Z,95.03
2023-04-07T03:40:24.980Z,95.43
2023-04-07T03:42:53.420Z,96.50
2023-04-07T03:45:23.176Z,96.73
2023-04-07T03:47:51.778Z,97.60
2023-04-07T03:50:20.314Z,95.70
2023-04-07T03:52:48.861Z,98.33
2023-04-07T03:55:17.427Z,97.77
2023-04-07T03:57:45.863Z,96.63
2023-04-07T04:00:15.387Z,96.83
2023-04-07T04:02:45.427Z,95.80
2023-04-07T04:05:13.946Z,94.10
2023-04-07T04:07:42.519Z,94.87
2023-04-07T04:10:11.545Z,94.33
2023-04-07T04:12:41.677Z,95.10
2023-04-07T04:15:11.427Z,97.60
2023-04-07T04:17:39.806Z,97.87
2023-04-07T04:20:10.948Z,95.67
2023-04-07T04:22:39.514Z,95.30
2023-04-07T04:25:08.318Z,99.40
2023-04-07T04:27:37.023Z,97.87
2023-04-07T04:30:08.210Z,104.23
2023-04-07T04:32:37.041Z,97.03
2023-04-07T04:35:06.396Z,96.13
2023-04-07T04:37:36.158Z,98.20
2023-04-07T04:40:08.579Z,95.13
2023-04-07T04:42:37.362Z,95.43
2023-04-07T04:45:06.770Z,94.10
2023-04-07T04:47:35.481Z,94.00
2023-04-07T04:50:03.927Z,96.43
2023-04-07T04:52:32.561Z,97.17
2023-04-07T04:55:02.456Z,99.50
2023-04-07T04:57:31.128Z,100.23
2023-04-07T04:59:59.448Z,99.33
2023-04-07T05:02:28.249Z,98.33
2023-04-07T05:04:56.777Z,94.80
2023-04-07T05:07:25.500Z,100.97
2023-04-07T05:09:55.128Z,101.73
2023-04-07T05:12:24.776Z,110.17
2023-04-07T05:14:53.210Z,111.33
2023-04-07T05:17:21.747Z,108.87
2023-04-07T05:19:50.355Z,108.50
2023-04-07T05:22:18.773Z,108.40
2023-04-07T05:24:47.339Z,106.10
2023-04-07T05:27:16.017Z,103.87
2023-04-07T05:29:45.892Z,106.97
2023-04-07T05:32:14.350Z,105.43
2023-04-07T05:34:42.695Z,103.00
2023-04-07T05:37:11.219Z,105.43
2023-04-07T05:39:39.678Z,102.70
2023-04-07T05:42:08.098Z,107.50
2023-04-07T05:44:36.545Z,103.63
2023-04-07T05:47:09.248Z,103.80
2023-04-07T05:49:37.760Z,108.65
2023-04-07T05:52:07.277Z,104.40
2023-04-07T05:54:36.302Z,102.27
2023-04-07T05:57:04.994Z,99.30
2023-04-07T05:59:33.669Z,93.40
2023-04-07T06:02:02.230Z,89.13
2023-04-07T06:04:33.068Z,87.80
2023-04-07T06:07:02.706Z,89.40
2023-04-07T06:09:31.510Z,86.60
2023-04-07T06:12:01.394Z,86.90
2023-04-07T06:14:29.712Z,85.93
2023-04-07T06:16:58.102Z,82.97
2023-04-07T06:19:27.600Z,84.33
2023-04-07T06:21:57.445Z,82.20
2023-04-07T06:24:26.135Z,79.73
2023-04-07T06:26:56.353Z,80.67
2023-04-07T06:29:24.798Z,78.40
2023-04-07T06:31:53.475Z,79.50
2023-04-07T06:34:21.919Z,80.50
2023-04-07T06:36:50.682Z,77.70
2023-04-07T06:39:20.496Z,79.93
2023-04-07T06:41:51.198Z,78.80
2023-04-07T06:44:19.644Z,77.93
2023-04-07T06:46:50.507Z,76.90
2023-04-07T06:49:18.799Z,81.20
2023-04-07T06:51:47.385Z,78.00
2023-04-07T06:54:18.684Z,79.77
2023-04-07T06:56:48.328Z,76.47
2023-04-07T06:59:17.365Z,75.37
2023-04-07T07:01:46.600Z,75.67
2023-04-07T07:04:15.822Z,75.70
2023-04-07T07:06:44.370Z,78.00
2023-04-07T07:09:12.691Z,75.13
2023-04-07T07:11:41.390Z,75.87
2023-04-07T07:14:11.383Z,77.07
2023-04-07T07:16:39.814Z,75.93
2023-04-07T07:19:08.256Z,73.67
2023-04-07T07:21:37.056Z,72.20
2023-04-07T07:24:05.749Z,69.30
2023-04-07T07:26:34.419Z,69.23
2023-04-07T07:29:02.982Z,68.70
2023-04-07T07:31:32.938Z,69.30
2023-04-07T07:34:01.421Z,69.40
2023-04-07T07:36:29.984Z,70.87
2023-04-07T07:38:58.546Z,68.00
2023-04-07T07:41:27.354Z,70.83
2023-04-07T07:43:56.021Z,65.53
2023-04-07T07:46:26.349Z,63.87
2023-04-07T07:48:56.386Z,61.87
2023-04-07T07:51:24.823Z,62.20
2023-04-07T07:53:53.163Z,62.17
2023-04-07T07:56:21.710Z,60.97
2023-04-07T07:58:50.026Z,61.43
2023-04-07T08:01:18.477Z,64.43
2023-04-07T08:03:47.429Z,63.40
2023-04-07T08:06:18.712Z,67.30
2023-04-07T08:08:48.132Z,63.33
2023-04-07T08:11:17.221Z,60.00
2023-04-07T08:13:46.944Z,57.60
2023-04-07T08:16:16.485Z,51.77
2023-04-07T08:18:46.322Z,50.80
2023-04-07T08:21:15.117Z,50.73
2023-04-07T08:23:44.896Z,47.63
2023-04-07T08:26:13.672Z,46.27
2023-04-07T08:28:42.268Z,47.50
2023-04-07T08:31:11.332Z,46.07
2023-04-07T08:33:39.998Z,51.47
2023-04-07T08:36:08.900Z,49.00
2023-04-07T08:38:37.450Z,45.63
2023-04-07T08:41:11.929Z,44.20
2023-04-07T08:43:41.415Z,42.73
2023-04-07T08:46:12.143Z,42.97
2023-04-07T08:48:42.754Z,41.77
2023-04-07T08:51:15.611Z,41.67
2023-04-07T08:53:52.717Z,40.33
2023-04-07T08:56:23.296Z,40.60
2023-04-07T08:58:53.652Z,38.57
2023-04-07T09:01:22.851Z,36.57
2023-04-07T09:03:52.145Z,35.80
2023-04-07T09:06:21.737Z,34.93
2023-04-07T09:08:50.649Z,34.83
2023-04-07T09:11:19.254Z,34.33
2023-04-07T09:13:50.786Z,34.33
2023-04-07T09:16:20.202Z,33.00
2023-04-07T09:18:49.126Z,32.47
2023-04-07T09:21:17.768Z,32.70
2023-04-07T09:23:46.901Z,32.53
2023-04-07T09:26:24.756Z,31.53
2023-04-07T09:28:57.038Z,32.00
2023-04-07T09:31:44.567Z,32.10
2023-04-07T09:34:25.820Z,30.87
2023-04-07T09:36:54.504Z,30.23
2023-04-07T09:39:23.410Z,29.93
2023-04-07T09:41:52.228Z,29.53
2023-04-07T09:44:23.127Z,29.83
2023-04-07T09:46:52.710Z,28.70
2023-04-07T09:49:21.504Z,28.50
2023-04-07T09:51:57.911Z,28.07
2023-04-07T09:54:37.623Z,27.70
2023-04-07T09:57:07.717Z,26.90
2023-04-07T09:59:39.159Z,26.63
2023-04-07T10:02:09.395Z,26.23
2023-04-07T10:04:40.274Z,26.80
2023-04-07T10:07:09.035Z,26.77
2023-04-07T10:09:37.708Z,26.93
2023-04-07T10:12:07.845Z,26.67
2023-04-07T10:14:39.812Z,28.10
2023-04-07T10:17:09.875Z,29.37
2023-04-07T10:19:39.153Z,27.23
2023-04-07T10:22:08.073Z,27.53
2023-04-07T10:24:48.418Z,27.13
2023-04-07T10:27:22.494Z,27.13
2023-04-07T10:29:54.396Z,26.23
2023-04-07T10:32:23.124Z,26.80
2023-04-07T10:34:58.997Z,27.17
2023-04-07T10:37:28.612Z,28.43
2023-04-07T10:40:31.843Z,28.33
2023-04-07T10:43:01.564Z,28.03
2023-04-07T10:45:56.644Z,29.17
2023-04-07T10:48:26.095Z,30.47
2023-04-07T10:51:19.252Z,28.33
2023-04-07T10:54:22.760Z,28.03
2023-04-07T10:57:18.644Z,28.60
2023-04-07T11:00:18.776Z,27.73
2023-04-07T11:02:48.876Z,26.83
2023-04-07T11:05:24.940Z,26.73
2023-04-07T11:07:59.835Z,27.03
2023-04-07T11:10:29.140Z,26.80
2023-04-07T11:13:03.358Z,27.73
2023-04-07T11:15:34.325Z,27.40
2023-04-07T11:18:13.212Z,28.57
2023-04-07T11:20:47.868Z,29.73
2023-04-07T11:23:18.571Z,29.23
2023-04-07T11:25:50.219Z,28.10
2023-04-07T11:28:19.287Z,27.30
2023-04-07T11:30:51.973Z,27.27
2023-04-07T11:33:24.201Z,27.00
2023-04-07T11:35:55.852Z,26.57
2023-04-07T11:38:26.354Z,26.73
2023-04-07T11:40:55.495Z,26.77
2023-04-07T11:43:26.594Z,27.53
2023-04-07T11:46:10.849Z,27.07
2023-04-07T11:48:42.443Z,26.77
2023-04-07T11:51:18.451Z,27.07
2023-04-07T11:53:48.515Z,27.23
2023-04-07T11:56:19.107Z,27.27
2023-04-07T11:58:51.804Z,27.07
2023-04-07T12:01:22.294Z,27.47
2023-04-07T12:04:02.370Z,27.00
2023-04-07T12:06:34.676Z,26.83
2023-04-07T12:09:03.909Z,21.17
2023-04-07T12:11:32.978Z,20.83
2023-04-07T12:14:02.233Z,20.10
2023-04-07T12:16:30.842Z,19.73
2023-04-07T12:19:00.551Z,19.37
2023-04-07T12:21:29.003Z,18.90
2023-04-07T12:23:57.454Z,19.50
2023-04-07T12:26:26.597Z,19.73
2023-04-07T12:28:55.172Z,21.43
2023-04-07T12:31:23.493Z,19.57
2023-04-07T12:33:52.882Z,21.70
2023-04-07T12:36:22.996Z,19.20
2023-04-07T12:38:51.438Z,18.67
2023-04-07T12:41:19.640Z,19.30
2023-04-07T12:43:48.494Z,18.77
2023-04-07T12:46:17.531Z,18.50
2023-04-07T12:48:45.944Z,18.77
2023-04-07T12:51:14.126Z,18.90
2023-04-07T12:53:43.768Z,18.90
2023-04-07T12:56:13.311Z,19.80
2023-04-07T12:58:41.844Z,19.07
2023-04-07T13:01:10.252Z,19.33
2023-04-07T13:03:38.912Z,19.00
2023-04-07T13:06:07.798Z,18.60
2023-04-07T13:08:36.447Z,19.87
2023-04-07T13:11:06.565Z,18.13
2023-04-07T13:13:35.618Z,18.57
2023-04-07T13:16:04.444Z,18.50
2023-04-07T13:18:33.093Z,18.63
2023-04-07T13:23:42.254Z,19.10
2023-04-07T13:26:13.565Z,20.70
2023-04-07T13:28:42.931Z,19.47
2023-04-07T13:31:15.818Z,19.23
2023-04-07T13:33:54.699Z,19.30
2023-04-07T13:36:28.578Z,20.07
2023-04-07T13:38:57.600Z,19.73
2023-04-07T13:41:27.821Z,18.83
2023-04-07T13:43:56.746Z,19.40
2023-04-07T13:46:28.906Z,19.27
2023-04-07T13:48:57.821Z,19.60
2023-04-07T13:51:26.621Z,19.07
2023-04-07T13:53:55.347Z,19.17
2023-04-07T13:56:25.557Z,19.57
2023-04-07T13:58:56.146Z,19.10
2023-04-07T14:01:25.960Z,19.00
2023-04-07T14:03:54.774Z,20.30
2023-04-07T14:06:23.884Z,19.50
2023-04-07T14:08:52.794Z,20.00
2023-04-07T14:11:22.307Z,19.90
2023-04-07T14:13:51.600Z,20.30
2023-04-07T14:16:21.976Z,20.07
2023-04-07T14:18:51.707Z,19.80
2023-04-07T14:21:20.164Z,19.47
2023-04-07T14:23:48.725Z,18.70
2023-04-07T14:26:17.269Z,18.83
2023-04-07T14:28:46.073Z,18.33
2023-04-07T14:31:15.907Z,18.77
2023-04-07T14:33:46.833Z,18.90
2023-04-07T14:36:16.903Z,20.13
2023-04-07T14:38:45.594Z,19.63
2023-04-07T14:41:14.046Z,19.80
2023-04-07T14:43:42.716Z,19.20
2023-04-07T14:46:12.380Z,18.97
2023-04-07T14:48:41.158Z,19.70
2023-04-07T14:51:14.646Z,19.50
2023-04-07T14:53:43.717Z,19.00
2023-04-07T14:56:12.144Z,18.77
2023-04-07T14:58:40.832Z,18.63
2023-04-07T15:01:09.497Z,18.63
2023-04-07T15:03:38.121Z,18.57
2023-04-07T15:06:10.226Z,18.63
2023-04-07T15:08:40.470Z,18.60
2023-04-07T15:11:09.373Z,19.53
2023-04-07T15:13:38.061Z,19.03
2023-04-07T15:16:11.135Z,19.93
2023-04-07T15:18:40.819Z,19.70
2023-04-07T15:21:09.750Z,19.87
2023-04-07T15:23:41.813Z,20.17
2023-04-07T15:26:11.413Z,21.03
2023-04-07T15:28:40.344Z,19.90
2023-04-07T15:31:10.168Z,19.47
2023-04-07T15:33:39.983Z,19.50
2023-04-07T15:36:09.621Z,19.70
2023-04-07T15:38:40.533Z,19.80
2023-04-07T15:41:08.901Z,19.67
2023-04-07T15:43:38.055Z,20.43
2023-04-07T15:46:06.637Z,19.77
2023-04-07T15:48:35.072Z,19.80
2023-04-07T15:51:03.263Z,19.60
2023-04-07T15:53:31.826Z,19.17
2023-04-07T15:56:01.591Z,19.13
2023-04-07T15:58:30.142Z,20.73
2023-04-07T16:00:58.871Z,19.67
2023-04-07T16:03:29.078Z,20.70
2023-04-07T16:05:57.635Z,22.70
2023-04-07T16:08:26.424Z,20.67
2023-04-07T16:10:54.748Z,21.43
2023-04-07T16:13:24.631Z,21.80
2023-04-07T16:15:57.059Z,22.07
2023-04-07T16:18:25.485Z,23.90
2023-04-07T16:20:54.046Z,23.13
2023-04-07T16:23:22.615Z,22.80
2023-04-07T16:25:51.268Z,24.40
2023-04-07T16:28:19.838Z,25.83
2023-04-07T16:30:49.597Z,26.23
2023-04-07T16:33:18.034Z,29.10
2023-04-07T16:35:46.635Z,30.00
2023-04-07T16:38:15.161Z,29.73
2023-04-07T16:41:00.597Z,32.90
2023-04-07T16:43:32.205Z,34.57
2023-04-07T16:46:02.008Z,35.20
2023-04-07T16:48:31.488Z,35.40
2023-04-07T16:50:59.812Z,36.57
2023-04-07T16:53:28.365Z,39.20
2023-04-07T16:55:57.048Z,36.67
2023-04-07T16:58:26.034Z,37.77
2023-04-07T17:00:54.406Z,39.07
2023-04-07T17:03:24.409Z,44.13
2023-04-07T17:05:52.970Z,45.83
2023-04-07T17:08:21.525Z,45.40
2023-04-07T17:10:49.846Z,45.90
2023-04-07T17:13:18.286Z,47.27
2023-04-07T17:15:46.765Z,47.40
2023-04-07T17:18:15.217Z,45.80
2023-04-07T17:20:45.171Z,47.27
2023-04-07T17:23:14.337Z,47.67
2023-04-07T17:25:42.771Z,47.77
2023-04-07T17:28:11.347Z,48.50
2023-04-07T17:30:40.010Z,48.60
2023-04-07T17:33:08.863Z,52.43
2023-04-07T17:35:37.426Z,51.30
2023-04-07T17:38:07.428Z,52.37
2023-04-07T17:40:35.811Z,50.90
2023-04-07T17:43:04.865Z,51.27
2023-04-07T17:45:33.323Z,50.23
2023-04-07T17:48:03.765Z,50.47
2023-04-07T17:50:32.775Z,51.07
2023-04-07T17:53:01.506Z,51.83
2023-04-07T17:55:31.391Z,52.67
2023-04-07T17:58:01.163Z,53.87
2023-04-07T18:00:30.082Z,52.87
2023-04-07T18:02:58.816Z,52.77
2023-04-07T18:05:31.068Z,53.13
2023-04-07T18:07:59.715Z,55.50
2023-04-07T18:10:28.265Z,55.57
2023-04-07T18:12:58.641Z,56.20
2023-04-07T18:15:27.931Z,59.87
2023-04-07T18:17:56.317Z,60.00
2023-04-07T18:20:24.796Z,60.60
2023-04-07T18:22:53.718Z,61.97
2023-04-07T18:25:22.158Z,62.60
2023-04-07T18:27:50.591Z,61.50
2023-04-07T18:30:21.557Z,60.33
2023-04-07T18:32:50.521Z,60.43
2023-04-07T18:35:18.920Z,60.27
2023-04-07T18:37:47.492Z,66.20
2023-04-07T18:40:16.357Z,62.53
2023-04-07T18:42:44.743Z,63.20
2023-04-07T18:45:13.285Z,62.77
2023-04-07T18:47:43.198Z,63.30
2023-04-07T18:50:12.075Z,64.50
2023-04-07T18:52:40.407Z,63.90
2023-04-07T18:55:11.075Z,65.40
2023-04-07T18:57:40.402Z,62.47
2023-04-07T19:00:09.986Z,64.30
2023-04-07T19:02:44.335Z,64.07
2023-04-07T19:05:15.326Z,63.50
2023-04-07T19:07:43.883Z,64.40
2023-04-07T19:10:12.336Z,61.50
2023-04-07T19:12:40.651Z,64.90
2023-04-07T19:15:10.182Z,67.00
2023-04-07T19:17:39.009Z,63.90
2023-04-07T19:20:08.851Z,64.20
2023-04-07T19:22:38.730Z,66.80
2023-04-07T19:25:08.369Z,66.20
2023-04-07T19:27:37.175Z,67.53
2023-04-07T19:30:06.450Z,66.63
2023-04-07T19:32:34.818Z,68.07
2023-04-07T19:35:03.347Z,66.63
2023-04-07T19:37:31.778Z,66.03
2023-04-07T19:40:03.228Z,67.90
2023-04-07T19:42:32.041Z,69.93
2023-04-07T19:45:02.664Z,66.67
2023-04-07T19:47:31.315Z,67.47
2023-04-07T19:50:00.248Z,64.40
2023-04-07T19:52:30.336Z,65.63
2023-04-07T19:54:59.766Z,64.30
2023-04-07T19:57:31.248Z,68.40
2023-04-07T19:59:59.753Z,70.27
2023-04-07T20:02:29.709Z,71.13
2023-04-07T20:04:59.178Z,71.80
2023-04-07T20:07:27.588Z,74.13
2023-04-07T20:09:57.356Z,72.80
2023-04-07T20:12:26.154Z,74.47
2023-04-07T20:14:56.043Z,75.03
2023-04-07T20:17:24.626Z,74.17
2023-04-07T20:19:55.071Z,75.83
2023-04-07T20:22:24.123Z,77.60
2023-04-07T20:24:52.689Z,78.33
2023-04-07T20:27:21.353Z,78.00
2023-04-07T20:29:51.117Z,78.00
2023-04-07T20:32:20.808Z,77.87
2023-04-07T20:34:52.207Z,77.80
2023-04-07T20:37:20.757Z,80.97
2023-04-07T20:39:49.436Z,77.03
2023-04-07T20:42:17.998Z,80.17
2023-04-07T20:44:49.925Z,82.60
2023-04-07T20:47:18.364Z,84.20
2023-04-07T20:49:48.245Z,81.47
2023-04-07T20:52:16.805Z,81.80
2023-04-07T20:54:47.648Z,80.20
2023-04-07T20:57:16.207Z,82.97
2023-04-07T20:59:44.887Z,83.37
2023-04-07T21:02:13.557Z,81.90
2023-04-07T21:04:42.136Z,81.03
2023-04-07T21:07:12.017Z,83.07
2023-04-07T21:09:41.411Z,77.20
2023-04-07T21:12:09.736Z,79.80
2023-04-07T21:14:38.179Z,83.43
2023-04-07T21:17:07.095Z,78.30
2023-04-07T21:19:35.668Z,80.77
2023-04-07T21:22:04.959Z,81.83
2023-04-07T21:24:34.711Z,79.43
2023-04-07T21:27:03.374Z,81.47
2023-04-07T21:29:32.675Z,83.83
2023-04-07T21:32:01.097Z,82.43
2023-04-07T21:34:29.663Z,80.67
2023-04-07T21:36:58.102Z,81.67
2023-04-07T21:39:26.656Z,81.30
2023-04-07T21:41:57.023Z,81.50
2023-04-07T21:44:25.712Z,84.50
2023-04-07T21:46:54.186Z,82.73
2023-04-07T21:49:23.201Z,84.23
2023-04-07T21:51:51.747Z,84.80
2023-04-07T21:54:20.345Z,84.60
2023-04-07T21:56:49.382Z,86.03
2023-04-07T21:59:19.465Z,86.60
2023-04-07T22:01:47.859Z,87.83
2023-04-07T22:04:16.561Z,86.13
2023-04-07T22:06:45.040Z,86.57
2023-04-07T22:09:13.588Z,89.70
2023-04-07T22:11:42.026Z,87.60
2023-04-07T22:14:10.469Z,87.03
2023-04-07T22:16:40.428Z,88.00
2023-04-07T22:19:08.918Z,93.78
2023-04-07T22:21:37.488Z,93.63
2023-04-07T22:24:06.033Z,88.73
2023-04-07T22:26:34.599Z,91.10
2023-04-07T22:29:03.060Z,88.60
2023-04-07T22:31:31.523Z,91.47
2023-04-07T22:34:02.327Z,91.90
2023-04-07T22:36:31.480Z,89.33
2023-04-07T22:38:59.930Z,90.97
2023-04-07T22:41:28.371Z,90.87
2023-04-07T22:43:57.035Z,88.00
2023-04-07T22:46:25.544Z,89.47
2023-04-07T22:48:53.920Z,85.27
2023-04-07T22:51:23.694Z,86.03
2023-04-07T22:53:52.361Z,88.30
2023-04-07T22:56:20.806Z,90.97
2023-04-07T22:58:49.595Z,89.60
2023-04-07T23:01:18.167Z,88.70
2023-04-07T23:03:46.879Z,88.67
2023-04-07T23:06:15.289Z,89.30
2023-04-07T23:08:46.727Z,91.53
2023-04-07T23:11:15.778Z,90.40
2023-04-07T23:13:44.329Z,90.77
2023-04-07T23:16:13.183Z,87.80
2023-04-07T23:18:42.645Z,92.00
2023-04-07T23:21:13.490Z,90.50
2023-04-07T23:23:41.932Z,92.30
2023-04-07T23:26:11.689Z,91.50
2023-04-07T23:28:40.262Z,88.67
2023-04-07T23:31:08.580Z,89.47
2023-04-07T23:33:37.130Z,85.67
2023-04-07T23:36:06.322Z,88.03
2023-04-07T23:38:36.416Z,89.40
2023-04-07T23:41:05.817Z,88.17
2023-04-07T23:43:36.060Z,89.53
2023-04-07T23:46:04.785Z,88.17
2023-04-07T23:48:33.062Z,88.80
2023-04-07T23:51:01.384Z,88.50
2023-04-07T23:53:29.831Z,88.77
2023-04-07T23:55:58.271Z,85.40
2023-04-07T23:58:26.706Z,87.10
